Lefroy, Canada
Current Conditions -  °F | °C
As of 10:12 AM on Thursday 18 Dec 2014 (Local Time) from CYBN Reporting Station
Overcast Overcast  
Wind Chill: 18°   Ceiling: 900
Heat Index: 27°   Visibility: 2.5mi
Dew Point: 25°   Wind: 8mph
Humidity: 93%   Direction: 320°NW
Pressure: 30.08"   Gusts: 20mph
Location:  44.27°N, 79.55°W
Report Text: CYBN 181512Z AUTO 32007G17KT 300V360 2 1/2SM OVC009 OVC031 M03/M04 A3008
Loading
Personal Weather Stations






























Interactive Weather Map New forecast layout! Learn more

10-Day Weather Forecast

Advertisements
Track Severe Weather on mobile